Time;durP1;ratioP1;P1;durP2;ratioP2;P2;SDS_P1;SDS_P2;PMS_P1;PMS_P2;Temp;Humidity;BMP_temperature;BMP_pressure;BME280_temperature;BME280_humidity;BME280_pressure;Samples;Min_cycle;Max_cycle;Signal;HPM_P1;HPM_P2
2023/02/27 00:02:20;;;;;;;;;;;;;;;-0.84;nan;101230.13;4995392;28;19921;-84
2023/02/27 00:04:45;;;;;;;;;;;;;;;-0.84;nan;101232.72;4997547;28;19980;-85
2023/02/27 00:07:10;;;;;;;;;;;;;;;-0.86;nan;101231.94;5015813;28;19917;-84
2023/02/27 00:09:36;;;;;;;;;;;;;;;-0.87;nan;101231.09;4995794;28;19918;-84
2023/02/27 00:12:02;;;;;;;;;;;;;;;-0.88;nan;101234.63;4996368;28;19914;-84
2023/02/27 00:14:27;;;;;;;;;;;;;;;-0.78;nan;101240.28;5011928;28;20598;-84
2023/02/27 00:16:52;;;;;;;;;;;;;;;-0.74;nan;101222.81;5008889;28;19921;-85
2023/02/27 00:19:17;;;;;;;;;;;;;;;-0.82;nan;101223.13;4998394;28;19993;-84
2023/02/27 00:21:44;;;;;;;;;;;;;;;-0.86;nan;101225.03;5002933;28;19937;-85
2023/02/27 00:24:10;;;;;;;;;;;;;;;-0.91;nan;101224.34;5000903;28;20367;-85
2023/02/27 00:26:35;;;;;;;;;;;;;;;-0.97;nan;101227.19;5010185;28;19913;-84
2023/02/27 00:29:00;;;;;;;;;;;;;;;-1.03;nan;101221.41;4994211;28;19926;-84
2023/02/27 00:31:26;;;;;;;;;;;;;;;-1.05;nan;101220.59;5007331;28;19944;-86
2023/02/27 00:33:51;;;;;;;;;;;;;;;-1.06;nan;101219.75;5016289;28;19917;-85
2023/02/27 00:36:16;;;;;;;;;;;;;;;-1.09;nan;101220.72;4986160;28;19940;-85
2023/02/27 00:38:41;;;;;;;;;;;;;;;-1.07;nan;101228.47;5013109;28;19940;-87
2023/02/27 00:41:07;;;;;;;;;;;;;;;-1.02;nan;101225.69;5000071;28;19976;-86
2023/02/27 00:43:32;;;;;;;;;;;;;;;-1.03;nan;101226.59;5003276;28;19917;-84
2023/02/27 00:45:57;;;;;;;;;;;;;;;-1.02;nan;101223.09;5022590;28;19960;-85
2023/02/27 00:48:22;;;;;;;;;;;;;;;-1.01;nan;101217.81;4998509;28;20189;-84
2023/02/27 00:50:48;;;;;;;;;;;;;;;-0.96;nan;101225.44;5011386;28;20256;-83
2023/02/27 00:53:15;;;;;;;;;;;;;;;-0.95;nan;101225.38;4992548;28;19939;-84
2023/02/27 00:55:40;;;;;;;;;;;;;;;-0.95;nan;101225.38;4993936;28;19925;-84
2023/02/27 00:58:05;;;;;;;;;;;;;;;-0.94;nan;101231.41;4984618;28;19978;-86
2023/02/27 01:00:30;;;;;;;;;;;;;;;-1.05;nan;101225.78;4994069;28;19929;-84
2023/02/27 01:02:56;;;;;;;;;;;;;;;-1.08;nan;101232.78;5011692;28;19917;-85
2023/02/27 01:05:21;;;;;;;;;;;;;;;-1.04;nan;101230.94;5011806;28;20330;-87
2023/02/27 01:07:46;;;;;;;;;;;;;;;-1.05;nan;101236.19;4998107;28;20062;-84
2023/02/27 01:10:12;;;;;;;;;;;;;;;-1.05;nan;101228.38;4997466;28;20024;-87
2023/02/27 01:12:37;;;;;;;;;;;;;;;-0.99;nan;101230.75;4997740;28;19924;-85
2023/02/27 01:15:03;;;;;;;;;;;;;;;-1.00;nan;101223.84;4996526;28;19917;-85
2023/02/27 01:17:28;;;;;;;;;;;;;;;-1.02;nan;101213.56;4996730;28;19924;-84
2023/02/27 01:19:53;;;;;;;;;;;;;;;-1.01;nan;101222.19;4992075;28;19917;-84
2023/02/27 01:22:19;;;;;;;;;;;;;;;-1.05;nan;101228.38;4999786;28;20288;-83
2023/02/27 01:24:44;;;;;;;;;;;;;;;-1.04;nan;101217.13;5011370;28;19917;-84
2023/02/27 01:27:09;;;;;;;;;;;;;;;-1.06;nan;101214.56;5009148;28;19929;-84
2023/02/27 01:29:34;;;;;;;;;;;;;;;-1.09;nan;101215.53;5008595;28;19927;-84
2023/02/27 01:31:59;;;;;;;;;;;;;;;-1.11;nan;101219.94;4993180;28;19921;-84
2023/02/27 01:34:25;;;;;;;;;;;;;;;-1.14;nan;101212.28;5007651;28;20306;-85
2023/02/27 01:36:50;;;;;;;;;;;;;;;-1.09;nan;101218.13;4991717;28;19925;-84
2023/02/27 01:39:15;;;;;;;;;;;;;;;-1.12;nan;101213.06;4992351;28;20250;-85
2023/02/27 01:41:40;;;;;;;;;;;;;;;-1.12;nan;101214.81;5012235;28;20001;-84
2023/02/27 01:44:08;;;;;;;;;;;;;;;-1.12;nan;101212.19;5011623;28;19953;-84
2023/02/27 01:46:34;;;;;;;;;;;;;;;-1.11;nan;101212.16;4996301;28;19952;-84
2023/02/27 01:49:01;;;;;;;;;;;;;;;-1.12;nan;101213.06;4989090;28;19917;-83
2023/02/27 01:51:30;;;;;;;;;;;;;;;-1.14;nan;101212.28;4993457;28;19925;-84
2023/02/27 01:53:56;;;;;;;;;;;;;;;-1.10;nan;101213.00;4995898;28;19940;-84
2023/02/27 01:56:23;;;;;;;;;;;;;;;-1.07;nan;101223.28;4993364;28;20388;-85
2023/02/27 01:58:49;;;;;;;;;;;;;;;-1.10;nan;101207.81;5013923;28;19918;-84
2023/02/27 02:01:15;;;;;;;;;;;;;;;-1.05;nan;101211.06;4996571;28;19918;-84
2023/02/27 02:03:53;;;;;;;;;;;;;;;-1.09;nan;101212.94;4996170;28;19925;-85
2023/02/27 02:06:19;;;;;;;;;;;;;;;-1.03;nan;101203.22;4991559;28;19920;-84
2023/02/27 02:08:45;;;;;;;;;;;;;;;-1.08;nan;101209.44;4992880;28;19917;-84
2023/02/27 02:11:12;;;;;;;;;;;;;;;-1.10;nan;101205.22;4997906;28;19922;-84
2023/02/27 02:13:39;;;;;;;;;;;;;;;-1.12;nan;101205.28;5016645;28;19972;-84
2023/02/27 02:16:07;;;;;;;;;;;;;;;-1.16;nan;101202.88;5021307;28;19921;-84
2023/02/27 02:18:40;;;;;;;;;;;;;;;-1.16;nan;101202.88;4999922;28;19924;-83
2023/02/27 02:21:25;;;;;;;;;;;;;;;-1.14;nan;101214.03;5004481;28;19948;-84
2023/02/27 02:23:56;;;;;;;;;;;;;;;-1.16;nan;101210.66;5020482;28;19932;-84
2023/02/27 02:26:21;;;;;;;;;;;;;;;-1.20;nan;101203.88;5002822;28;20290;-83
2023/02/27 02:28:50;;;;;;;;;;;;;;;-1.21;nan;101213.44;5000739;28;19917;-84
2023/02/27 02:31:15;;;;;;;;;;;;;;;-1.22;nan;101210.88;5000013;28;19924;-84
2023/02/27 02:33:59;;;;;;;;;;;;;;;-1.22;nan;101213.47;5001204;28;20301;-83
2023/02/27 02:36:40;;;;;;;;;;;;;;;-1.24;nan;101210.97;5016864;28;19949;-84
2023/02/27 02:39:13;;;;;;;;;;;;;;;-1.24;nan;101202.31;5025750;28;19917;-83
2023/02/27 02:42:01;;;;;;;;;;;;;;;-1.26;nan;101207.56;5009009;28;19927;-83
2023/02/27 02:44:39;;;;;;;;;;;;;;;-1.27;nan;101221.44;5011606;28;19989;-83
2023/02/27 02:47:13;;;;;;;;;;;;;;;-1.31;nan;101209.50;5026059;28;20278;-83
2023/02/27 02:49:56;;;;;;;;;;;;;;;-1.31;nan;101215.53;5023019;28;19948;-84
2023/02/27 02:52:21;;;;;;;;;;;;;;;-1.34;nan;101209.59;5005514;28;19948;-84
2023/02/27 02:55:05;;;;;;;;;;;;;;;-1.41;nan;101206.38;4999870;28;19952;-84
2023/02/27 02:57:45;;;;;;;;;;;;;;;-1.43;nan;101210.81;4996899;28;20079;-84
2023/02/27 03:00:12;;;;;;;;;;;;;;;-1.46;nan;101208.31;5015162;28;19921;-84
2023/02/27 03:02:41;;;;;;;;;;;;;;;-1.47;nan;101222.22;5017188;28;20003;-84
2023/02/27 03:05:08;;;;;;;;;;;;;;;-1.48;nan;101217.91;5016380;28;19917;-84
2023/02/27 03:07:46;;;;;;;;;;;;;;;-1.51;nan;101221.47;4989628;28;19925;-84
2023/02/27 03:10:25;;;;;;;;;;;;;;;-1.55;nan;101227.69;5028339;28;19918;-84
2023/02/27 03:12:54;;;;;;;;;;;;;;;-1.59;nan;101217.47;4995584;28;19922;-84
2023/02/27 03:15:43;;;;;;;;;;;;;;;-1.63;nan;101214.13;4994137;28;19941;-83
2023/02/27 03:18:16;;;;;;;;;;;;;;;-1.64;nan;101228.03;5000455;28;19918;-83
2023/02/27 03:20:44;;;;;;;;;;;;;;;-1.67;nan;101233.28;4995594;28;19927;-84
2023/02/27 03:23:16;;;;;;;;;;;;;;;-1.72;nan;101227.44;5016556;28;19948;-83
2023/02/27 03:25:45;;;;;;;;;;;;;;;-1.75;nan;101228.41;4999690;28;19928;-85
2023/02/27 03:28:13;;;;;;;;;;;;;;;-1.75;nan;101230.16;4998475;28;20511;-85
2023/02/27 03:30:41;;;;;;;;;;;;;;;-1.80;nan;101232.06;4998172;28;20174;-85
2023/02/27 03:33:16;;;;;;;;;;;;;;;-1.80;nan;101227.72;4998129;28;20129;-85
2023/02/27 03:35:52;;;;;;;;;;;;;;;-1.81;nan;101225.19;5014782;28;20291;-85
2023/02/27 03:38:21;;;;;;;;;;;;;;;-1.86;nan;101232.28;5012973;28;19963;-84
2023/02/27 03:41:08;;;;;;;;;;;;;;;-1.87;nan;101228.84;4999878;28;19917;-85
2023/02/27 03:43:45;;;;;;;;;;;;;;;-1.90;nan;101234.16;4995267;28;19925;-85
2023/02/27 03:46:12;;;;;;;;;;;;;;;-1.94;nan;101236.00;5006953;28;19921;-85
2023/02/27 03:48:43;;;;;;;;;;;;;;;-1.89;nan;101241.00;5011647;28;20290;-85
2023/02/27 03:51:08;;;;;;;;;;;;;;;-1.91;nan;101250.59;5010913;28;19924;-85
2023/02/27 03:53:39;;;;;;;;;;;;;;;-1.96;nan;101245.56;5010968;28;19917;-85
2023/02/27 03:56:06;;;;;;;;;;;;;;;-2.00;nan;101251.78;5007884;28;20149;-85
2023/02/27 03:58:32;;;;;;;;;;;;;;;-2.00;nan;101244.00;4995924;28;19921;-85
2023/02/27 04:00:57;;;;;;;;;;;;;;;-1.97;nan;101240.44;4986210;28;19917;-85
2023/02/27 04:03:22;;;;;;;;;;;;;;;-1.92;nan;101241.97;4996620;28;19924;-83
2023/02/27 04:05:47;;;;;;;;;;;;;;;-1.85;nan;101246.94;4996091;28;20374;-83
2023/02/27 04:08:15;;;;;;;;;;;;;;;-1.84;nan;101248.63;4996022;28;19917;-83
2023/02/27 04:10:50;;;;;;;;;;;;;;;-1.88;nan;101247.91;5014744;28;20326;-84
2023/02/27 04:13:39;;;;;;;;;;;;;;;-1.85;nan;101260.75;5013875;28;19940;-85
2023/02/27 04:16:10;;;;;;;;;;;;;;;-1.81;nan;101261.47;4991599;28;19932;-84
2023/02/27 04:18:38;;;;;;;;;;;;;;;-1.79;nan;101260.53;5014266;28;19918;-84
2023/02/27 04:21:04;;;;;;;;;;;;;;;-1.78;nan;101259.63;5012867;28;19944;-84
2023/02/27 04:23:48;;;;;;;;;;;;;;;-1.84;nan;101261.59;4996652;28;20676;-84
2023/02/27 04:26:19;;;;;;;;;;;;;;;-1.76;nan;101265.59;5013546;28;20097;-84
2023/02/27 04:28:49;;;;;;;;;;;;;;;-1.74;nan;101266.41;5006979;28;19918;-84
2023/02/27 04:31:23;;;;;;;;;;;;;;;-1.74;nan;101271.59;5006635;28;19925;-84
2023/02/27 04:33:52;;;;;;;;;;;;;;;-1.75;nan;101266.44;5010821;28;20290;-84
2023/02/27 04:36:23;;;;;;;;;;;;;;;-1.75;nan;101269.03;5012446;28;19929;-84
2023/02/27 04:38:53;;;;;;;;;;;;;;;-1.72;nan;101274.97;5000205;28;20373;-84
2023/02/27 04:41:18;;;;;;;;;;;;;;;-1.75;nan;101267.28;4995122;28;19968;-84
2023/02/27 04:43:44;;;;;;;;;;;;;;;-1.75;nan;101282.00;5013170;28;20024;-84
2023/02/27 04:46:11;;;;;;;;;;;;;;;-1.78;nan;101282.13;5012548;28;19924;-84
2023/02/27 04:48:40;;;;;;;;;;;;;;;-1.78;nan;101285.56;5012900;28;19921;-84
2023/02/27 04:51:12;;;;;;;;;;;;;;;-1.71;nan;101283.59;5013588;28;19925;-84
2023/02/27 04:53:43;;;;;;;;;;;;;;;-1.73;nan;101285.41;5019726;28;20338;-84
2023/02/27 04:56:11;;;;;;;;;;;;;;;-1.80;nan;101284.75;5012064;28;20016;-84
2023/02/27 04:58:41;;;;;;;;;;;;;;;-1.82;nan;101290.91;5012376;28;19980;-84
2023/02/27 05:01:27;;;;;;;;;;;;;;;-1.84;nan;101287.50;5010113;28;19932;-84
2023/02/27 05:03:53;;;;;;;;;;;;;;;-1.82;nan;101294.34;4993240;28;20696;-84
2023/02/27 05:06:22;;;;;;;;;;;;;;;-1.82;nan;101289.16;5026330;28;19917;-84
2023/02/27 05:09:05;;;;;;;;;;;;;;;-1.79;nan;101291.66;5012803;28;19917;-84
2023/02/27 05:11:33;;;;;;;;;;;;;;;-1.77;nan;101292.41;5012769;28;20338;-84
2023/02/27 05:14:05;;;;;;;;;;;;;;;-1.81;nan;101297.75;5016854;28;19948;-84
2023/02/27 05:16:40;;;;;;;;;;;;;;;-1.83;nan;101302.19;4997460;28;19932;-83
2023/02/27 05:19:06;;;;;;;;;;;;;;;-1.82;nan;101296.91;5013949;28;19924;-84
2023/02/27 05:21:54;;;;;;;;;;;;;;;-1.85;nan;101301.38;5019461;28;19921;-84
2023/02/27 05:24:25;;;;;;;;;;;;;;;-1.90;nan;101293.75;5020639;28;19940;-84
2023/02/27 05:26:50;;;;;;;;;;;;;;;-1.94;nan;101292.16;5012981;28;20501;-84
2023/02/27 05:29:30;;;;;;;;;;;;;;;-1.99;nan;101294.06;4994141;28;19963;-89
2023/02/27 05:32:15;;;;;;;;;;;;;;;-2.02;nan;101300.22;5021253;28;19917;-88
2023/02/27 05:34:47;;;;;;;;;;;;;;;-1.98;nan;101298.34;4998904;28;19918;-83
2023/02/27 05:37:15;;;;;;;;;;;;;;;-1.93;nan;101307.69;4988433;28;20024;-85
2023/02/27 05:39:44;;;;;;;;;;;;;;;-1.86;nan;101308.31;5017400;28;19921;-86
2023/02/27 05:42:16;;;;;;;;;;;;;;;-1.83;nan;101304.78;5013544;28;20219;-83
2023/02/27 05:44:43;;;;;;;;;;;;;;;-1.86;nan;101305.72;4998588;28;19917;-84
2023/02/27 05:47:11;;;;;;;;;;;;;;;-1.83;nan;101309.97;5016728;28;20341;-85
2023/02/27 05:49:42;;;;;;;;;;;;;;;-1.79;nan;101302.03;5015719;28;19921;-84
2023/02/27 05:52:11;;;;;;;;;;;;;;;-1.79;nan;101307.22;4998270;28;19913;-84
2023/02/27 05:54:45;;;;;;;;;;;;;;;-1.78;nan;101311.47;5000737;28;19914;-84
2023/02/27 05:57:14;;;;;;;;;;;;;;;-1.80;nan;101310.69;5011982;28;20453;-83
2023/02/27 05:59:44;;;;;;;;;;;;;;;-1.87;nan;101308.38;5011017;28;19964;-85
2023/02/27 06:02:11;;;;;;;;;;;;;;;-1.82;nan;101316.81;4994928;28;19914;-83
2023/02/27 06:04:36;;;;;;;;;;;;;;;-1.79;nan;101303.75;5012077;28;19944;-84
2023/02/27 06:07:03;;;;;;;;;;;;;;;-1.76;nan;101304.50;4995100;28;19913;-86
2023/02/27 06:09:29;;;;;;;;;;;;;;;-1.73;nan;101314.75;4994992;28;19922;-85
2023/02/27 06:11:54;;;;;;;;;;;;;;;-1.72;nan;101307.81;5014558;28;20016;-86
2023/02/27 06:14:19;;;;;;;;;;;;;;;-1.77;nan;101310.56;5012005;28;20402;-85
2023/02/27 06:16:44;;;;;;;;;;;;;;;-1.79;nan;101314.97;4999855;28;19921;-85
2023/02/27 06:19:10;;;;;;;;;;;;;;;-1.80;nan;101315.03;4991018;28;19972;-85
2023/02/27 06:21:36;;;;;;;;;;;;;;;-1.78;nan;101318.41;5000309;28;19995;-85
2023/02/27 06:24:01;;;;;;;;;;;;;;;-1.80;nan;101320.22;4999316;28;19945;-85
2023/02/27 06:26:26;;;;;;;;;;;;;;;-1.81;nan;101315.91;5017005;28;20349;-85
2023/02/27 06:28:51;;;;;;;;;;;;;;;-1.82;nan;101322.00;4999998;28;19918;-85
2023/02/27 06:31:16;;;;;;;;;;;;;;;-1.85;nan;101330.75;5003076;28;19940;-87
2023/02/27 06:33:42;;;;;;;;;;;;;;;-1.82;nan;101337.56;5001709;28;19928;-83
2023/02/27 06:36:07;;;;;;;;;;;;;;;-1.80;nan;101334.00;4999106;28;19941;-85
2023/02/27 06:38:32;;;;;;;;;;;;;;;-1.79;nan;101337.44;5002114;28;20402;-85
2023/02/27 06:40:58;;;;;;;;;;;;;;;-1.78;nan;101336.56;5008648;28;19925;-85
2023/02/27 06:43:23;;;;;;;;;;;;;;;-1.77;nan;101340.84;5000628;28;20338;-85
2023/02/27 06:45:51;;;;;;;;;;;;;;;-1.69;nan;101344.03;5020695;28;19913;-87
2023/02/27 06:48:17;;;;;;;;;;;;;;;-1.70;nan;101342.31;5020131;28;19913;-87
2023/02/27 06:50:42;;;;;;;;;;;;;;;-1.65;nan;101350.78;5002261;28;19984;-86
2023/02/27 06:53:07;;;;;;;;;;;;;;;-1.61;nan;101352.38;4999147;28;19914;-86
2023/02/27 06:55:32;;;;;;;;;;;;;;;-1.57;nan;101350.53;4999297;28;19925;-85
2023/02/27 06:57:57;;;;;;;;;;;;;;;-1.51;nan;101356.34;4998416;28;20260;-88
2023/02/27 07:00:23;;;;;;;;;;;;;;;-1.47;nan;101364.88;5019832;28;19917;-86
2023/02/27 07:02:48;;;;;;;;;;;;;;;-1.42;nan;101364.72;5002381;28;19918;-84
2023/02/27 07:05:14;;;;;;;;;;;;;;;-1.39;nan;101352.47;5002641;28;19913;-86
2023/02/27 07:07:39;;;;;;;;;;;;;;;-1.32;nan;101355.69;5021787;28;19921;-87
2023/02/27 07:10:10;;;;;;;;;;;;;;;-1.27;nan;101360.72;5005897;28;19913;-86
2023/02/27 07:12:35;;;;;;;;;;;;;;;-1.23;nan;101357.94;5021435;28;20006;-88
2023/02/27 07:15:01;;;;;;;;;;;;;;;-1.14;nan;101367.16;5020365;28;19948;-85
2023/02/27 07:17:26;;;;;;;;;;;;;;;-1.02;nan;101373.66;5003273;28;20357;-88
2023/02/27 07:19:51;;;;;;;;;;;;;;;-0.83;nan;101364.25;4999893;28;19948;-85
2023/02/27 07:22:16;;;;;;;;;;;;;;;-0.37;nan;101383.25;4994770;28;19917;-85
2023/02/27 07:24:41;;;;;;;;;;;;;;;;;;5014474;28;19922;-85
2023/02/27 07:27:06;;;;;;;;;;;;;;;0.50;nan;101375.34;5016441;28;19952;-85
2023/02/27 07:29:32;;;;;;;;;;;;;;;0.82;nan;101372.19;5021962;28;19921;-86
2023/02/27 07:31:57;;;;;;;;;;;;;;;;;;5014624;28;19921;-85
2023/02/27 07:34:22;;;;;;;;;;;;;;;;;;4996787;28;20445;-84
2023/02/27 07:36:47;;;;;;;;;;;;;;;;;;4998118;28;20008;-83
2023/02/27 07:39:12;;;;;;;;;;;;;;;;;;5016358;28;19945;-85
2023/02/27 07:41:37;;;;;;;;;;;;;;;;;;5014305;28;19913;-84
2023/02/27 07:44:02;;;;;;;;;;;;;;;0.81;nan;101375.72;4995936;28;19913;-85
2023/02/27 07:46:28;;;;;;;;;;;;;;;0.63;nan;101374.75;5014189;28;20252;-85
2023/02/27 07:48:53;;;;;;;;;;;;;;;0.62;nan;101380.00;4996521;28;20285;-83
2023/02/27 07:51:18;;;;;;;;;;;;;;;0.55;nan;101375.97;4996497;28;19960;-84
2023/02/27 07:53:43;;;;;;;;;;;;;;;0.42;nan;101376.50;5014248;28;19913;-83
2023/02/27 07:56:08;;;;;;;;;;;;;;;;;;4996895;28;19921;-84
2023/02/27 07:58:34;;;;;;;;;;;;;;;;;;5018301;28;19953;-84
2023/02/27 08:00:59;;;;;;;;;;;;;;;0.03;nan;101365.22;5018185;28;20390;-84
2023/02/27 08:03:24;;;;;;;;;;;;;;;0.33;nan;101384.72;5000022;28;19960;-83
2023/02/27 08:05:49;;;;;;;;;;;;;;;0.23;nan;101382.56;5033534;28;19993;-83
2023/02/27 08:08:15;;;;;;;;;;;;;;;0.28;nan;101386.66;5017833;28;19917;-85
2023/02/27 08:10:40;;;;;;;;;;;;;;;0.31;nan;101378.75;5019059;28;19921;-83
2023/02/27 08:13:05;;;;;;;;;;;;;;;0.54;nan;101369.09;5006133;28;19913;-85
2023/02/27 08:15:31;;;;;;;;;;;;;;;0.50;nan;101375.34;5022334;28;19922;-84
2023/02/27 08:17:57;;;;;;;;;;;;;;;0.55;nan;101381.19;5004752;28;20372;-84
2023/02/27 08:20:23;;;;;;;;;;;;;;;0.70;nan;101379.69;5000704;28;19940;-84
2023/02/27 08:22:48;;;;;;;;;;;;;;;0.57;nan;101377.63;5020683;28;20338;-85
2023/02/27 08:25:13;;;;;;;;;;;;;;;0.50;nan;101384.03;5022822;28;19921;-84
2023/02/27 08:27:38;;;;;;;;;;;;;;;0.58;nan;101379.31;5002720;28;19924;-83
2023/02/27 08:30:05;;;;;;;;;;;;;;;0.74;nan;101376.03;5000743;28;19970;-84
2023/02/27 08:32:30;;;;;;;;;;;;;;;0.75;nan;101383.78;5015200;28;20333;-85
2023/02/27 08:34:55;;;;;;;;;;;;;;;0.73;nan;101384.75;4996267;28;19987;-84
2023/02/27 08:37:20;;;;;;;;;;;;;;;0.84;nan;101382.53;5014214;28;19913;-84
2023/02/27 08:39:46;;;;;;;;;;;;;;;0.93;nan;101373.44;5014478;28;20339;-84
2023/02/27 08:42:11;;;;;;;;;;;;;;;0.86;nan;101380.72;5014454;28;20599;-84
2023/02/27 08:44:36;;;;;;;;;;;;;;;1.00;nan;101387.88;4994780;28;19918;-84
2023/02/27 08:47:01;;;;;;;;;;;;;;;1.08;nan;101395.38;4994305;28;19921;-83
2023/02/27 08:49:26;;;;;;;;;;;;;;;1.35;nan;101383.66;4994596;28;20386;-84
2023/02/27 08:51:52;;;;;;;;;;;;;;;2.20;nan;101395.28;5011874;28;19913;-84
2023/02/27 08:54:18;;;;;;;;;;;;;;;2.82;nan;101392.97;5013407;28;20371;-84
2023/02/27 08:56:43;;;;;;;;;;;;;;;3.74;nan;101391.44;5015141;28;19921;-84
2023/02/27 08:59:08;;;;;;;;;;;;;;;4.78;nan;101394.94;4998316;28;19913;-84
2023/02/27 09:01:34;;;;;;;;;;;;;;;5.19;nan;101398.59;4997855;28;19924;-84
2023/02/27 09:04:00;;;;;;;;;;;;;;;5.52;nan;101395.63;5018168;28;19913;-85
2023/02/27 09:06:25;;;;;;;;;;;;;;;6.01;nan;101399.53;4997986;28;20621;-84
2023/02/27 09:08:51;;;;;;;;;;;;;;;5.94;nan;101399.91;5018107;28;19945;-84
2023/02/27 09:11:16;;;;;;;;;;;;;;;5.67;nan;101413.03;4999557;28;19913;-83
2023/02/27 09:13:41;;;;;;;;;;;;;;;5.50;nan;101403.56;5017287;28;19988;-85
2023/02/27 09:16:06;;;;;;;;;;;;;;;6.19;nan;101411.41;4998859;28;19924;-86
2023/02/27 09:18:31;;;;;;;;;;;;;;;7.24;nan;101399.84;4997783;28;19917;-83
2023/02/27 09:20:57;;;;;;;;;;;;;;;7.69;nan;101400.13;5017707;28;20437;-83
2023/02/27 09:23:22;;;;;;;;;;;;;;;6.70;nan;101400.16;5004123;28;19980;-83
2023/02/27 09:25:47;;;;;;;;;;;;;;;5.09;nan;101414.03;5018530;28;19941;-83
2023/02/27 09:28:12;;;;;;;;;;;;;;;4.13;nan;101410.19;4999289;28;19972;-83
2023/02/27 09:30:37;;;;;;;;;;;;;;;3.82;nan;101406.69;5016469;28;19917;-83
2023/02/27 09:33:02;;;;;;;;;;;;;;;3.92;nan;101420.94;5018530;28;19996;-83
2023/02/27 09:35:28;;;;;;;;;;;;;;;3.91;nan;101413.16;4999020;28;19917;-86
2023/02/27 09:37:55;;;;;;;;;;;;;;;3.30;nan;101417.41;5017059;28;19928;-84
2023/02/27 09:40:25;;;;;;;;;;;;;;;3.32;nan;101426.84;4998419;28;19917;-84
2023/02/27 09:42:52;;;;;;;;;;;;;;;3.15;nan;101430.38;5016342;28;19928;-83
2023/02/27 09:45:38;;;;;;;;;;;;;;;2.43;nan;101428.03;5002465;28;19928;-84
2023/02/27 09:48:18;;;;;;;;;;;;;;;2.89;nan;101428.28;5001665;28;19913;-83
2023/02/27 09:50:46;;;;;;;;;;;;;;;2.76;nan;101420.22;5000279;28;19921;-83
2023/02/27 09:53:14;;;;;;;;;;;;;;;2.70;nan;101434.47;4997913;28;19921;-83
2023/02/27 09:55:40;;;;;;;;;;;;;;;2.63;nan;101445.31;5016460;28;19921;-84
2023/02/27 09:58:17;;;;;;;;;;;;;;;2.50;nan;101439.84;5000801;28;20117;-84
2023/02/27 10:00:43;;;;;;;;;;;;;;;2.57;nan;101453.44;5018645;28;19917;-83
2023/02/27 10:03:28;;;;;;;;;;;;;;;2.65;nan;101446.91;5020104;28;19977;-81
2023/02/27 10:05:53;;;;;;;;;;;;;;;2.57;nan;101438.63;5021876;28;19914;-82
2023/02/27 10:08:24;;;;;;;;;;;;;;;2.60;nan;101454.16;5000702;28;20004;-82
2023/02/27 10:10:59;;;;;;;;;;;;;;;2.60;nan;101442.84;5020398;28;19913;-82
2023/02/27 10:13:24;;;;;;;;;;;;;;;2.70;nan;101450.13;5019712;28;19920;-82
2023/02/27 10:15:51;;;;;;;;;;;;;;;2.53;nan;101442.31;5003406;28;19918;-83
2023/02/27 10:18:20;;;;;;;;;;;;;;;2.62;nan;101438.38;5020138;28;19940;-82
2023/02/27 10:20:50;;;;;;;;;;;;;;;2.68;nan;101446.75;5019259;28;19913;-82
2023/02/27 10:23:17;;;;;;;;;;;;;;;2.81;nan;101443.50;5018882;28;19921;-84
2023/02/27 10:25:45;;;;;;;;;;;;;;;3.21;nan;101442.25;5020386;28;19940;-83
2023/02/27 10:28:11;;;;;;;;;;;;;;;4.03;nan;101449.97;5002904;28;19921;-83
2023/02/27 10:30:38;;;;;;;;;;;;;;;5.69;nan;101444.38;5019180;28;19921;-82
2023/02/27 10:33:09;;;;;;;;;;;;;;;7.40;nan;101453.06;4999318;28;19940;-84
2023/02/27 10:35:35;;;;;;;;;;;;;;;8.45;nan;101445.50;5017679;28;19971;-84
2023/02/27 10:38:06;;;;;;;;;;;;;;;8.85;nan;101455.69;4989867;28;19996;-84
2023/02/27 10:40:33;;;;;;;;;;;;;;;9.03;nan;101454.22;4990253;28;19917;-84
2023/02/27 10:43:00;;;;;;;;;;;;;;;9.66;nan;101459.03;5004177;28;19913;-82
2023/02/27 10:45:25;;;;;;;;;;;;;;;9.98;nan;101456.41;5020231;28;19921;-83
2023/02/27 10:47:50;;;;;;;;;;;;;;;10.27;nan;101461.94;5020710;28;19920;-83
2023/02/27 10:50:20;;;;;;;;;;;;;;;10.47;nan;101446.28;5018470;28;19928;-84
2023/02/27 10:52:49;;;;;;;;;;;;;;;11.10;nan;101456.78;5020112;28;19920;-83
2023/02/27 10:55:21;;;;;;;;;;;;;;;11.08;nan;101464.84;5020463;28;19917;-82
2023/02/27 10:57:46;;;;;;;;;;;;;;;10.48;nan;101445.31;5020563;28;19963;-82
2023/02/27 11:00:40;;;;;;;;;;;;;;;10.62;nan;101451.09;5021572;28;20138;-84
2023/02/27 11:03:15;;;;;;;;;;;;;;;11.22;nan;101434.56;4990124;28;19921;-83
2023/02/27 11:05:40;;;;;;;;;;;;;;;12.04;nan;101436.16;5007518;28;19921;-82
2023/02/27 11:08:22;;;;;;;;;;;;;;;12.06;nan;101440.34;5006672;28;19917;-83
2023/02/27 11:11:01;;;;;;;;;;;;;;;12.65;nan;101441.13;4998836;28;20365;-84
2023/02/27 11:13:28;;;;;;;;;;;;;;;12.57;nan;101434.88;5000028;28;19913;-82
2023/02/27 11:16:01;;;;;;;;;;;;;;;10.36;nan;101433.94;5003048;28;19928;-84
2023/02/27 11:18:28;;;;;;;;;;;;;;;11.72;nan;101431.06;4989421;28;19914;-82
2023/02/27 11:21:07;;;;;;;;;;;;;;;12.37;nan;101431.38;5018456;28;19940;-83
2023/02/27 11:23:33;;;;;;;;;;;;;;;12.21;nan;101427.50;5016861;28;20016;-84
2023/02/27 11:26:08;;;;;;;;;;;;;;;11.83;nan;101423.84;5014425;28;19960;-84
2023/02/27 11:28:33;;;;;;;;;;;;;;;13.06;nan;101419.63;4995500;28;19960;-83
2023/02/27 11:31:04;;;;;;;;;;;;;;;14.48;nan;101428.75;5013012;28;20349;-83
2023/02/27 11:33:34;;;;;;;;;;;;;;;13.66;nan;101413.88;5016359;28;19921;-84
2023/02/27 11:36:01;;;;;;;;;;;;;;;12.35;nan;101423.59;5013470;28;20120;-84
2023/02/27 11:38:27;;;;;;;;;;;;;;;12.09;nan;101428.63;4993828;28;19917;-84
2023/02/27 11:40:54;;;;;;;;;;;;;;;11.02;nan;101423.06;5012815;28;19920;-84
2023/02/27 11:43:22;;;;;;;;;;;;;;;10.76;nan;101420.84;4996268;28;19921;-84
2023/02/27 11:45:52;;;;;;;;;;;;;;;10.40;nan;101425.63;4999728;28;20056;-85
2023/02/27 11:48:23;;;;;;;;;;;;;;;10.47;nan;101427.78;4998779;28;20073;-83
2023/02/27 11:50:56;;;;;;;;;;;;;;;9.79;nan;101418.28;5018659;28;19917;-83
2023/02/27 11:53:39;;;;;;;;;;;;;;;9.47;nan;101414.78;5017718;28;19924;-84
2023/02/27 11:56:09;;;;;;;;;;;;;;;9.35;nan;101414.78;5001039;28;19918;-83
2023/02/27 11:58:39;;;;;;;;;;;;;;;9.30;nan;101424.03;5020626;28;20455;-83
2023/02/27 12:01:13;;;;;;;;;;;;;;;8.36;nan;101415.38;5020257;28;19921;-84
2023/02/27 12:03:54;;;;;;;;;;;;;;;8.41;nan;101417.69;5005154;28;19913;-82
2023/02/27 12:06:22;;;;;;;;;;;;;;;8.02;nan;101417.06;5002203;28;19929;-83
2023/02/27 12:08:47;;;;;;;;;;;;;;;7.62;nan;101425.22;5002274;28;20318;-83
2023/02/27 12:11:26;;;;;;;;;;;;;;;7.57;nan;101422.09;5020484;28;20348;-84
2023/02/27 12:13:59;;;;;;;;;;;;;;;7.30;nan;101407.34;5002366;28;19984;-82
2023/02/27 12:16:24;;;;;;;;;;;;;;;7.21;nan;101414.06;5001789;28;20342;-83
2023/02/27 12:18:56;;;;;;;;;;;;;;;6.66;nan;101396.03;5022355;28;19913;-83
2023/02/27 12:21:23;;;;;;;;;;;;;;;6.46;nan;101403.50;5002634;28;19921;-84
2023/02/27 12:24:09;;;;;;;;;;;;;;;5.94;nan;101397.28;5003156;28;19963;-84
2023/02/27 12:26:41;;;;;;;;;;;;;;;5.60;nan;101396.00;4984628;28;19918;-83
2023/02/27 12:29:18;;;;;;;;;;;;;;;5.42;nan;101407.63;5002482;28;19992;-82
2023/02/27 12:31:50;;;;;;;;;;;;;;;5.47;nan;101397.69;4986241;28;19918;-83
2023/02/27 12:34:19;;;;;;;;;;;;;;;5.00;nan;101380.53;5001874;28;19936;-83
2023/02/27 12:36:44;;;;;;;;;;;;;;;5.14;nan;101374.44;5001439;28;19921;-84
2023/02/27 12:39:20;;;;;;;;;;;;;;;5.19;nan;101370.56;5020213;28;19958;-83
2023/02/27 12:41:54;;;;;;;;;;;;;;;5.46;nan;101386.38;5001642;28;19941;-83
2023/02/27 12:44:26;;;;;;;;;;;;;;;5.32;nan;101383.78;4997549;28;19928;-84
2023/02/27 12:47:07;;;;;;;;;;;;;;;5.40;nan;101381.50;5018787;28;20008;-84
2023/02/27 12:49:45;;;;;;;;;;;;;;;5.63;nan;101379.22;5002579;28;19948;-83
2023/02/27 12:52:10;;;;;;;;;;;;;;;5.49;nan;101391.41;5018399;28;19928;-83
2023/02/27 12:54:41;;;;;;;;;;;;;;;5.20;nan;101377.53;5001457;28;19913;-82
2023/02/27 12:57:15;;;;;;;;;;;;;;;5.17;nan;101382.94;5019630;28;19944;-83
2023/02/27 12:59:54;;;;;;;;;;;;;;;5.24;nan;101386.88;5019916;28;19913;-83
2023/02/27 13:02:25;;;;;;;;;;;;;;;5.08;nan;101376.50;5017469;28;20032;-83
2023/02/27 13:04:59;;;;;;;;;;;;;;;4.99;nan;101377.06;5001223;28;19918;-83
2023/02/27 13:07:36;;;;;;;;;;;;;;;4.91;nan;101371.47;5019604;28;19917;-83
2023/02/27 13:10:21;;;;;;;;;;;;;;;4.88;nan;101376.88;5004465;28;19917;-84
2023/02/27 13:12:46;;;;;;;;;;;;;;;4.66;nan;101369.50;5016956;28;19918;-83
2023/02/27 13:15:19;;;;;;;;;;;;;;;4.60;nan;101375.09;5019434;28;19920;-83